sensor_id;sensor_type;location;lat;lon;timestamp;pressure;altitude;pressure_sealevel;temperature;humidity
19827;BME280;10074;52.018;4.726;2022-08-16T00:02:59;46245.31;;;-144.79;100.00
19827;BME280;10074;52.018;4.726;2022-08-16T00:08:00;46247.31;;;-144.79;100.00
19827;BME280;10074;52.018;4.726;2022-08-16T00:13:03;46253.34;;;-144.79;100.00
19827;BME280;10074;52.018;4.726;2022-08-16T00:18:05;46253.34;;;-144.79;100.00
19827;BME280;10074;52.018;4.726;2022-08-16T00:23:06;46251.34;;;-144.79;100.00
19827;BME280;10074;52.018;4.726;2022-08-16T00:28:07;46251.34;;;-144.79;100.00
19827;BME280;10074;52.018;4.726;2022-08-16T00:33:07;46255.34;;;-144.79;100.00
19827;BME280;10074;52.018;4.726;2022-08-16T00:38:08;46249.34;;;-144.79;100.00
19827;BME280;10074;52.018;4.726;2022-08-16T00:43:19;46249.34;;;-144.79;100.00
19827;BME280;10074;52.018;4.726;2022-08-16T00:48:20;46255.34;;;-144.79;100.00
19827;BME280;10074;52.018;4.726;2022-08-16T00:53:20;46251.34;;;-144.79;100.00
19827;BME280;10074;52.018;4.726;2022-08-16T00:58:23;46251.34;;;-144.79;100.00
19827;BME280;10074;52.018;4.726;2022-08-16T01:03:27;46255.34;;;-144.79;100.00
19827;BME280;10074;52.018;4.726;2022-08-16T01:08:28;46247.31;;;-144.79;100.00
19827;BME280;10074;52.018;4.726;2022-08-16T01:13:31;46251.34;;;-144.79;100.00
19827;BME280;10074;52.018;4.726;2022-08-16T01:18:37;46243.31;;;-144.79;100.00
19827;BME280;10074;52.018;4.726;2022-08-16T01:24:09;46259.34;;;-144.79;100.00
19827;BME280;10074;52.018;4.726;2022-08-16T01:29:16;46255.34;;;-144.79;100.00
19827;BME280;10074;52.018;4.726;2022-08-16T01:34:19;46255.34;;;-144.79;100.00
19827;BME280;10074;52.018;4.726;2022-08-16T01:39:19;46253.34;;;-144.79;100.00
19827;BME280;10074;52.018;4.726;2022-08-16T01:44:19;46255.34;;;-144.79;100.00
19827;BME280;10074;52.018;4.726;2022-08-16T01:49:29;46251.34;;;-144.79;100.00
19827;BME280;10074;52.018;4.726;2022-08-16T01:54:31;46259.34;;;-144.79;100.00
19827;BME280;10074;52.018;4.726;2022-08-16T01:59:34;46255.34;;;-144.79;100.00
19827;BME280;10074;52.018;4.726;2022-08-16T02:04:34;46261.34;;;-144.79;100.00
19827;BME280;10074;52.018;4.726;2022-08-16T02:09:36;46255.34;;;-144.79;100.00
19827;BME280;10074;52.018;4.726;2022-08-16T02:14:38;46263.38;;;-144.79;100.00
19827;BME280;10074;52.018;4.726;2022-08-16T02:19:40;46261.34;;;-144.79;100.00
19827;BME280;10074;52.018;4.726;2022-08-16T02:24:41;46265.38;;;-144.79;100.00
19827;BME280;10074;52.018;4.726;2022-08-16T02:29:43;46255.34;;;-144.79;100.00
19827;BME280;10074;52.018;4.726;2022-08-16T02:34:43;46261.34;;;-144.79;100.00
19827;BME280;10074;52.018;4.726;2022-08-16T02:39:43;46263.38;;;-144.79;100.00
19827;BME280;10074;52.018;4.726;2022-08-16T02:44:44;46253.34;;;-144.79;100.00
19827;BME280;10074;52.018;4.726;2022-08-16T02:49:44;46253.34;;;-144.79;100.00
19827;BME280;10074;52.018;4.726;2022-08-16T02:54:44;46265.38;;;-144.79;100.00
19827;BME280;10074;52.018;4.726;2022-08-16T02:59:45;46255.34;;;-144.79;100.00
19827;BME280;10074;52.018;4.726;2022-08-16T03:04:45;46251.34;;;-144.79;100.00
19827;BME280;10074;52.018;4.726;2022-08-16T03:09:45;46259.34;;;-144.79;100.00
19827;BME280;10074;52.018;4.726;2022-08-16T03:14:46;46253.34;;;-144.79;100.00
19827;BME280;10074;52.018;4.726;2022-08-16T03:19:47;46259.34;;;-144.79;100.00
19827;BME280;10074;52.018;4.726;2022-08-16T03:24:47;46265.38;;;-144.79;100.00
19827;BME280;10074;52.018;4.726;2022-08-16T03:29:47;46261.34;;;-144.79;100.00
19827;BME280;10074;52.018;4.726;2022-08-16T03:34:47;46255.34;;;-144.79;100.00
19827;BME280;10074;52.018;4.726;2022-08-16T03:39:48;46261.34;;;-144.79;100.00
19827;BME280;10074;52.018;4.726;2022-08-16T03:44:48;46261.34;;;-144.79;100.00
19827;BME280;10074;52.018;4.726;2022-08-16T03:49:48;46263.38;;;-144.79;100.00
19827;BME280;10074;52.018;4.726;2022-08-16T03:54:51;46265.38;;;-144.79;100.00
19827;BME280;10074;52.018;4.726;2022-08-16T03:59:51;46261.34;;;-144.79;100.00
19827;BME280;10074;52.018;4.726;2022-08-16T04:04:52;46257.34;;;-144.79;100.00
19827;BME280;10074;52.018;4.726;2022-08-16T04:09:55;46263.38;;;-144.79;100.00
19827;BME280;10074;52.018;4.726;2022-08-16T04:14:55;46259.34;;;-144.79;100.00
19827;BME280;10074;52.018;4.726;2022-08-16T04:19:56;46259.34;;;-144.79;100.00
19827;BME280;10074;52.018;4.726;2022-08-16T04:24:56;46259.34;;;-144.79;100.00
19827;BME280;10074;52.018;4.726;2022-08-16T04:29:56;46271.38;;;-144.79;100.00
19827;BME280;10074;52.018;4.726;2022-08-16T04:34:57;46259.34;;;-144.79;100.00
19827;BME280;10074;52.018;4.726;2022-08-16T04:39:57;46263.38;;;-144.79;100.00
19827;BME280;10074;52.018;4.726;2022-08-16T04:44:57;46263.38;;;-144.79;100.00
19827;BME280;10074;52.018;4.726;2022-08-16T04:49:58;46263.38;;;-144.79;100.00
19827;BME280;10074;52.018;4.726;2022-08-16T04:54:58;46259.34;;;-144.79;100.00
19827;BME280;10074;52.018;4.726;2022-08-16T04:59:59;46255.34;;;-144.79;100.00
19827;BME280;10074;52.018;4.726;2022-08-16T05:04:59;46253.34;;;-144.79;100.00
19827;BME280;10074;52.018;4.726;2022-08-16T05:09:59;46257.34;;;-144.79;100.00
19827;BME280;10074;52.018;4.726;2022-08-16T05:15:00;46263.38;;;-144.79;100.00
19827;BME280;10074;52.018;4.726;2022-08-16T05:20:01;46257.34;;;-144.79;100.00
19827;BME280;10074;52.018;4.726;2022-08-16T05:25:03;46263.38;;;-144.79;100.00
19827;BME280;10074;52.018;4.726;2022-08-16T05:30:06;46261.34;;;-144.79;100.00
19827;BME280;10074;52.018;4.726;2022-08-16T05:35:09;46263.38;;;-144.79;100.00
19827;BME280;10074;52.018;4.726;2022-08-16T05:40:11;46263.38;;;-144.79;100.00
19827;BME280;10074;52.018;4.726;2022-08-16T05:45:12;46261.34;;;-144.79;100.00
19827;BME280;10074;52.018;4.726;2022-08-16T05:50:12;46259.34;;;-144.79;100.00
19827;BME280;10074;52.018;4.726;2022-08-16T05:55:13;46253.34;;;-144.79;100.00
19827;BME280;10074;52.018;4.726;2022-08-16T06:00:13;46255.34;;;-144.79;100.00
19827;BME280;10074;52.018;4.726;2022-08-16T06:05:14;46259.34;;;-144.79;100.00
19827;BME280;10074;52.018;4.726;2022-08-16T06:10:14;46267.38;;;-144.79;100.00
19827;BME280;10074;52.018;4.726;2022-08-16T06:15:18;46255.34;;;-144.79;100.00
19827;BME280;10074;52.018;4.726;2022-08-16T06:20:21;46263.38;;;-144.79;100.00
19827;BME280;10074;52.018;4.726;2022-08-16T06:25:23;46263.38;;;-144.79;100.00
19827;BME280;10074;52.018;4.726;2022-08-16T06:30:25;46261.34;;;-144.79;100.00
19827;BME280;10074;52.018;4.726;2022-08-16T06:35:25;46269.38;;;-144.79;100.00
19827;BME280;10074;52.018;4.726;2022-08-16T06:40:25;46263.38;;;-144.79;100.00
19827;BME280;10074;52.018;4.726;2022-08-16T06:45:26;46265.38;;;-144.79;100.00
19827;BME280;10074;52.018;4.726;2022-08-16T06:50:26;46265.38;;;-144.79;100.00
19827;BME280;10074;52.018;4.726;2022-08-16T06:55:27;46267.38;;;-144.79;100.00
19827;BME280;10074;52.018;4.726;2022-08-16T07:00:28;46267.38;;;-144.79;100.00
19827;BME280;10074;52.018;4.726;2022-08-16T07:05:29;46259.34;;;-144.79;100.00
19827;BME280;10074;52.018;4.726;2022-08-16T07:10:30;46263.38;;;-144.79;100.00
19827;BME280;10074;52.018;4.726;2022-08-16T07:15:31;46269.38;;;-144.79;100.00
19827;BME280;10074;52.018;4.726;2022-08-16T07:20:31;46271.38;;;-144.79;100.00
19827;BME280;10074;52.018;4.726;2022-08-16T07:25:32;46263.38;;;-144.79;100.00
19827;BME280;10074;52.018;4.726;2022-08-16T07:30:33;46263.38;;;-144.79;100.00
19827;BME280;10074;52.018;4.726;2022-08-16T07:35:33;46271.38;;;-144.79;100.00
19827;BME280;10074;52.018;4.726;2022-08-16T07:40:35;46267.38;;;-144.79;100.00
19827;BME280;10074;52.018;4.726;2022-08-16T07:45:36;46271.38;;;-144.79;100.00
19827;BME280;10074;52.018;4.726;2022-08-16T07:50:36;46271.38;;;-144.79;100.00
19827;BME280;10074;52.018;4.726;2022-08-16T07:55:36;46273.38;;;-144.79;100.00
19827;BME280;10074;52.018;4.726;2022-08-16T08:00:37;46273.38;;;-144.79;100.00
19827;BME280;10074;52.018;4.726;2022-08-16T08:05:37;46259.34;;;-144.79;100.00
19827;BME280;10074;52.018;4.726;2022-08-16T08:10:39;46273.38;;;-144.79;100.00
19827;BME280;10074;52.018;4.726;2022-08-16T08:15:39;46269.38;;;-144.79;100.00
19827;BME280;10074;52.018;4.726;2022-08-16T08:20:40;46279.41;;;-144.79;100.00
19827;BME280;10074;52.018;4.726;2022-08-16T08:25:44;46261.34;;;-144.79;100.00
19827;BME280;10074;52.018;4.726;2022-08-16T08:30:44;46271.38;;;-144.79;100.00
19827;BME280;10074;52.018;4.726;2022-08-16T08:35:45;46263.38;;;-144.79;100.00
19827;BME280;10074;52.018;4.726;2022-08-16T08:40:46;46273.38;;;-144.79;100.00
19827;BME280;10074;52.018;4.726;2022-08-16T08:45:47;46263.38;;;-144.79;100.00
19827;BME280;10074;52.018;4.726;2022-08-16T08:50:47;46267.38;;;-144.79;100.00
19827;BME280;10074;52.018;4.726;2022-08-16T08:55:48;46271.38;;;-144.79;100.00
19827;BME280;10074;52.018;4.726;2022-08-16T09:00:50;46261.34;;;-144.79;100.00
19827;BME280;10074;52.018;4.726;2022-08-16T09:05:50;46273.38;;;-144.79;100.00
19827;BME280;10074;52.018;4.726;2022-08-16T09:10:52;46273.38;;;-144.79;100.00
19827;BME280;10074;52.018;4.726;2022-08-16T09:15:54;46275.41;;;-144.79;100.00
19827;BME280;10074;52.018;4.726;2022-08-16T09:20:55;46283.41;;;-144.79;100.00
19827;BME280;10074;52.018;4.726;2022-08-16T09:25:56;46263.38;;;-144.79;100.00
19827;BME280;10074;52.018;4.726;2022-08-16T09:30:56;46259.34;;;-144.79;100.00
19827;BME280;10074;52.018;4.726;2022-08-16T09:35:56;46267.38;;;-144.79;100.00
19827;BME280;10074;52.018;4.726;2022-08-16T09:40:57;46265.38;;;-144.79;100.00
19827;BME280;10074;52.018;4.726;2022-08-16T09:45:58;46267.38;;;-144.79;100.00
19827;BME280;10074;52.018;4.726;2022-08-16T09:50:59;46261.34;;;-144.79;100.00
19827;BME280;10074;52.018;4.726;2022-08-16T09:55:59;46271.38;;;-144.79;100.00
19827;BME280;10074;52.018;4.726;2022-08-16T10:01:01;46271.38;;;-144.79;100.00
19827;BME280;10074;52.018;4.726;2022-08-16T10:06:01;46271.38;;;-144.79;100.00
19827;BME280;10074;52.018;4.726;2022-08-16T10:11:01;46271.38;;;-144.79;100.00
19827;BME280;10074;52.018;4.726;2022-08-16T10:16:20;46271.38;;;-144.79;100.00
19827;BME280;10074;52.018;4.726;2022-08-16T10:21:21;46259.34;;;-144.79;100.00
19827;BME280;10074;52.018;4.726;2022-08-16T10:26:22;46267.38;;;-144.79;100.00
19827;BME280;10074;52.018;4.726;2022-08-16T10:31:26;46267.38;;;-144.79;100.00
19827;BME280;10074;52.018;4.726;2022-08-16T10:36:27;46267.38;;;-144.79;100.00
19827;BME280;10074;52.018;4.726;2022-08-16T10:41:28;46267.38;;;-144.79;100.00
19827;BME280;10074;52.018;4.726;2022-08-16T10:46:28;46261.34;;;-144.79;100.00
19827;BME280;10074;52.018;4.726;2022-08-16T10:51:29;46263.38;;;-144.79;100.00
19827;BME280;10074;52.018;4.726;2022-08-16T10:56:32;46265.38;;;-144.79;100.00
19827;BME280;10074;52.018;4.726;2022-08-16T11:01:32;46269.38;;;-144.79;100.00
19827;BME280;10074;52.018;4.726;2022-08-16T11:06:33;46267.38;;;-144.79;100.00
19827;BME280;10074;52.018;4.726;2022-08-16T11:11:33;46269.38;;;-144.79;100.00
19827;BME280;10074;52.018;4.726;2022-08-16T11:16:34;46259.34;;;-144.79;100.00
19827;BME280;10074;52.018;4.726;2022-08-16T11:21:35;46259.34;;;-144.79;100.00
19827;BME280;10074;52.018;4.726;2022-08-16T11:26:39;46269.38;;;-144.79;100.00
19827;BME280;10074;52.018;4.726;2022-08-16T11:31:39;46257.34;;;-144.79;100.00
19827;BME280;10074;52.018;4.726;2022-08-16T11:36:39;46257.34;;;-144.79;100.00
19827;BME280;10074;52.018;4.726;2022-08-16T11:41:40;46261.34;;;-144.79;100.00
19827;BME280;10074;52.018;4.726;2022-08-16T11:46:40;46259.34;;;-144.79;100.00
19827;BME280;10074;52.018;4.726;2022-08-16T11:51:42;46255.34;;;-144.79;100.00
19827;BME280;10074;52.018;4.726;2022-08-16T11:56:43;46255.34;;;-144.79;100.00
19827;BME280;10074;52.018;4.726;2022-08-16T12:01:44;46257.34;;;-144.79;100.00
19827;BME280;10074;52.018;4.726;2022-08-16T12:06:44;46247.31;;;-144.79;100.00
19827;BME280;10074;52.018;4.726;2022-08-16T12:11:45;46247.31;;;-144.79;100.00
19827;BME280;10074;52.018;4.726;2022-08-16T12:16:45;46251.34;;;-144.79;100.00
19827;BME280;10074;52.018;4.726;2022-08-16T12:21:45;46251.34;;;-144.79;100.00
19827;BME280;10074;52.018;4.726;2022-08-16T12:26:46;46263.38;;;-144.79;100.00
19827;BME280;10074;52.018;4.726;2022-08-16T12:31:47;46261.34;;;-144.79;100.00
19827;BME280;10074;52.018;4.726;2022-08-16T12:36:49;46261.34;;;-144.79;100.00
19827;BME280;10074;52.018;4.726;2022-08-16T12:41:49;46255.34;;;-144.79;100.00
19827;BME280;10074;52.018;4.726;2022-08-16T12:46:51;46257.34;;;-144.79;100.00
19827;BME280;10074;52.018;4.726;2022-08-16T12:52:10;46255.34;;;-144.79;100.00
19827;BME280;10074;52.018;4.726;2022-08-16T12:57:11;46257.34;;;-144.79;100.00
19827;BME280;10074;52.018;4.726;2022-08-16T13:02:11;46255.34;;;-144.79;100.00
19827;BME280;10074;52.018;4.726;2022-08-16T13:07:12;46253.34;;;-144.79;100.00
19827;BME280;10074;52.018;4.726;2022-08-16T13:12:12;46255.34;;;-144.79;100.00
19827;BME280;10074;52.018;4.726;2022-08-16T13:17:24;46255.34;;;-144.79;100.00
19827;BME280;10074;52.018;4.726;2022-08-16T13:22:25;46247.31;;;-144.79;100.00
19827;BME280;10074;52.018;4.726;2022-08-16T13:27:25;46253.34;;;-144.79;100.00
19827;BME280;10074;52.018;4.726;2022-08-16T13:32:25;46247.31;;;-144.79;100.00
19827;BME280;10074;52.018;4.726;2022-08-16T13:37:26;46247.31;;;-144.79;100.00
19827;BME280;10074;52.018;4.726;2022-08-16T13:42:26;46249.34;;;-144.79;100.00
19827;BME280;10074;52.018;4.726;2022-08-16T13:47:26;46245.31;;;-144.79;100.00
19827;BME280;10074;52.018;4.726;2022-08-16T13:52:27;46243.31;;;-144.79;100.00
19827;BME280;10074;52.018;4.726;2022-08-16T13:57:27;46241.31;;;-144.79;100.00
19827;BME280;10074;52.018;4.726;2022-08-16T14:02:27;46247.31;;;-144.79;100.00
19827;BME280;10074;52.018;4.726;2022-08-16T14:07:28;46243.31;;;-144.79;100.00
19827;BME280;10074;52.018;4.726;2022-08-16T14:12:30;46247.31;;;-144.79;100.00
19827;BME280;10074;52.018;4.726;2022-08-16T14:17:31;46251.34;;;-144.79;100.00
19827;BME280;10074;52.018;4.726;2022-08-16T14:22:34;46239.31;;;-144.79;100.00
19827;BME280;10074;52.018;4.726;2022-08-16T14:27:37;46243.31;;;-144.79;100.00
19827;BME280;10074;52.018;4.726;2022-08-16T14:32:38;46247.31;;;-144.79;100.00
19827;BME280;10074;52.018;4.726;2022-08-16T14:37:38;46243.31;;;-144.79;100.00
19827;BME280;10074;52.018;4.726;2022-08-16T14:42:40;46249.34;;;-144.79;100.00
19827;BME280;10074;52.018;4.726;2022-08-16T14:47:40;46239.31;;;-144.79;100.00
19827;BME280;10074;52.018;4.726;2022-08-16T14:52:43;46241.31;;;-144.79;100.00
19827;BME280;10074;52.018;4.726;2022-08-16T14:57:45;46243.31;;;-144.79;100.00
19827;BME280;10074;52.018;4.726;2022-08-16T15:02:53;46231.28;;;-144.79;100.00
19827;BME280;10074;52.018;4.726;2022-08-16T15:07:54;46241.31;;;-144.79;100.00
19827;BME280;10074;52.018;4.726;2022-08-16T15:12:55;46231.28;;;-144.79;100.00
19827;BME280;10074;52.018;4.726;2022-08-16T15:17:57;46233.28;;;-144.79;100.00
19827;BME280;10074;52.018;4.726;2022-08-16T15:23:00;46233.28;;;-144.79;100.00
19827;BME280;10074;52.018;4.726;2022-08-16T15:28:02;46233.28;;;-144.79;100.00
19827;BME280;10074;52.018;4.726;2022-08-16T15:33:10;46235.28;;;-144.79;100.00
19827;BME280;10074;52.018;4.726;2022-08-16T15:38:13;46239.31;;;-144.79;100.00
19827;BME280;10074;52.018;4.726;2022-08-16T15:43:13;46237.31;;;-144.79;100.00
19827;BME280;10074;52.018;4.726;2022-08-16T15:48:13;46239.31;;;-144.79;100.00
19827;BME280;10074;52.018;4.726;2022-08-16T15:53:20;46243.31;;;-144.79;100.00
19827;BME280;10074;52.018;4.726;2022-08-16T15:58:21;46249.34;;;-144.79;100.00
19827;BME280;10074;52.018;4.726;2022-08-16T16:03:22;46257.34;;;-144.79;100.00
19827;BME280;10074;52.018;4.726;2022-08-16T16:08:25;46255.34;;;-144.79;100.00
19827;BME280;10074;52.018;4.726;2022-08-16T16:13:26;46263.38;;;-144.79;100.00
19827;BME280;10074;52.018;4.726;2022-08-16T16:18:27;46263.38;;;-144.79;100.00
19827;BME280;10074;52.018;4.726;2022-08-16T16:23:32;46267.38;;;-144.79;100.00
19827;BME280;10074;52.018;4.726;2022-08-16T16:28:34;46267.38;;;-144.79;100.00
19827;BME280;10074;52.018;4.726;2022-08-16T16:33:37;46267.38;;;-144.79;100.00
19827;BME280;10074;52.018;4.726;2022-08-16T16:38:40;46275.41;;;-144.79;100.00
19827;BME280;10074;52.018;4.726;2022-08-16T16:43:44;46265.38;;;-144.79;100.00
19827;BME280;10074;52.018;4.726;2022-08-16T16:48:44;46261.34;;;-144.79;100.00
19827;BME280;10074;52.018;4.726;2022-08-16T16:53:46;46273.38;;;-144.79;100.00
19827;BME280;10074;52.018;4.726;2022-08-16T16:58:48;46271.38;;;-144.79;100.00
19827;BME280;10074;52.018;4.726;2022-08-16T17:04:01;46273.38;;;-144.79;100.00
19827;BME280;10074;52.018;4.726;2022-08-16T17:09:02;46271.38;;;-144.79;100.00
19827;BME280;10074;52.018;4.726;2022-08-16T17:14:03;46275.41;;;-144.79;100.00
19827;BME280;10074;52.018;4.726;2022-08-16T17:19:04;46275.41;;;-144.79;100.00
19827;BME280;10074;52.018;4.726;2022-08-16T17:24:08;46279.41;;;-144.79;100.00
19827;BME280;10074;52.018;4.726;2022-08-16T17:29:09;46275.41;;;-144.79;100.00
19827;BME280;10074;52.018;4.726;2022-08-16T17:34:10;46269.38;;;-144.79;100.00
19827;BME280;10074;52.018;4.726;2022-08-16T17:39:11;46271.38;;;-144.79;100.00
19827;BME280;10074;52.018;4.726;2022-08-16T17:44:11;46265.38;;;-144.79;100.00
19827;BME280;10074;52.018;4.726;2022-08-16T17:49:12;46271.38;;;-144.79;100.00
19827;BME280;10074;52.018;4.726;2022-08-16T17:54:12;46269.38;;;-144.79;100.00
19827;BME280;10074;52.018;4.726;2022-08-16T17:59:13;46265.38;;;-144.79;100.00
19827;BME280;10074;52.018;4.726;2022-08-16T18:04:13;46263.38;;;-144.79;100.00
19827;BME280;10074;52.018;4.726;2022-08-16T18:09:14;46267.38;;;-144.79;100.00
19827;BME280;10074;52.018;4.726;2022-08-16T18:14:14;46255.34;;;-144.79;100.00
19827;BME280;10074;52.018;4.726;2022-08-16T18:19:17;46263.38;;;-144.79;100.00
19827;BME280;10074;52.018;4.726;2022-08-16T18:24:18;46265.38;;;-144.79;100.00
19827;BME280;10074;52.018;4.726;2022-08-16T18:29:19;46263.38;;;-144.79;100.00
19827;BME280;10074;52.018;4.726;2022-08-16T18:34:20;46269.38;;;-144.79;100.00
19827;BME280;10074;52.018;4.726;2022-08-16T18:39:20;46269.38;;;-144.79;100.00
19827;BME280;10074;52.018;4.726;2022-08-16T18:44:20;46257.34;;;-144.79;100.00
19827;BME280;10074;52.018;4.726;2022-08-16T18:49:21;46255.34;;;-144.79;100.00
19827;BME280;10074;52.018;4.726;2022-08-16T18:54:21;46265.38;;;-144.79;100.00
19827;BME280;10074;52.018;4.726;2022-08-16T18:59:28;46259.34;;;-144.79;100.00
19827;BME280;10074;52.018;4.726;2022-08-16T19:04:29;46267.38;;;-144.79;100.00
19827;BME280;10074;52.018;4.726;2022-08-16T19:09:29;46271.38;;;-144.79;100.00
19827;BME280;10074;52.018;4.726;2022-08-16T19:14:30;46271.38;;;-144.79;100.00
19827;BME280;10074;52.018;4.726;2022-08-16T19:19:30;46259.34;;;-144.79;100.00
19827;BME280;10074;52.018;4.726;2022-08-16T19:24:30;46263.38;;;-144.79;100.00
19827;BME280;10074;52.018;4.726;2022-08-16T19:29:31;46273.38;;;-144.79;100.00
19827;BME280;10074;52.018;4.726;2022-08-16T19:34:31;46275.41;;;-144.79;100.00
19827;BME280;10074;52.018;4.726;2022-08-16T19:39:32;46267.38;;;-144.79;100.00
19827;BME280;10074;52.018;4.726;2022-08-16T19:44:32;46265.38;;;-144.79;100.00
19827;BME280;10074;52.018;4.726;2022-08-16T19:49:33;46275.41;;;-144.79;100.00
19827;BME280;10074;52.018;4.726;2022-08-16T19:54:34;46271.38;;;-144.79;100.00
19827;BME280;10074;52.018;4.726;2022-08-16T19:59:34;46271.38;;;-144.79;100.00
19827;BME280;10074;52.018;4.726;2022-08-16T20:04:36;46275.41;;;-144.79;100.00
19827;BME280;10074;52.018;4.726;2022-08-16T20:09:38;46271.38;;;-144.79;100.00
19827;BME280;10074;52.018;4.726;2022-08-16T20:14:39;46267.38;;;-144.79;100.00
19827;BME280;10074;52.018;4.726;2022-08-16T20:19:41;46275.41;;;-144.79;100.00
19827;BME280;10074;52.018;4.726;2022-08-16T20:24:42;46269.38;;;-144.79;100.00
19827;BME280;10074;52.018;4.726;2022-08-16T20:29:43;46273.38;;;-144.79;100.00
19827;BME280;10074;52.018;4.726;2022-08-16T20:34:46;46273.38;;;-144.79;100.00
19827;BME280;10074;52.018;4.726;2022-08-16T20:39:51;46275.41;;;-144.79;100.00
19827;BME280;10074;52.018;4.726;2022-08-16T20:44:53;46277.41;;;-144.79;100.00
19827;BME280;10074;52.018;4.726;2022-08-16T20:49:53;46267.38;;;-144.79;100.00
19827;BME280;10074;52.018;4.726;2022-08-16T20:54:54;46275.41;;;-144.79;100.00
19827;BME280;10074;52.018;4.726;2022-08-16T20:59:55;46273.38;;;-144.79;100.00
19827;BME280;10074;52.018;4.726;2022-08-16T21:04:55;46275.41;;;-144.79;100.00
19827;BME280;10074;52.018;4.726;2022-08-16T21:09:56;46283.41;;;-144.79;100.00
19827;BME280;10074;52.018;4.726;2022-08-16T21:14:56;46273.38;;;-144.79;100.00
19827;BME280;10074;52.018;4.726;2022-08-16T21:19:56;46273.38;;;-144.79;100.00
19827;BME280;10074;52.018;4.726;2022-08-16T21:24:56;46267.38;;;-144.79;100.00
19827;BME280;10074;52.018;4.726;2022-08-16T21:29:57;46273.38;;;-144.79;100.00
19827;BME280;10074;52.018;4.726;2022-08-16T21:34:57;46277.41;;;-144.79;100.00
19827;BME280;10074;52.018;4.726;2022-08-16T21:39:57;46275.41;;;-144.79;100.00
19827;BME280;10074;52.018;4.726;2022-08-16T21:44:58;46285.41;;;-144.79;100.00
19827;BME280;10074;52.018;4.726;2022-08-16T21:49:58;46279.41;;;-144.79;100.00
19827;BME280;10074;52.018;4.726;2022-08-16T21:54:58;46279.41;;;-144.79;100.00
19827;BME280;10074;52.018;4.726;2022-08-16T21:59:58;46287.44;;;-144.79;100.00
19827;BME280;10074;52.018;4.726;2022-08-16T22:04:59;46287.44;;;-144.79;100.00
19827;BME280;10074;52.018;4.726;2022-08-16T22:10:00;46279.41;;;-144.79;100.00
19827;BME280;10074;52.018;4.726;2022-08-16T22:15:00;46287.44;;;-144.79;100.00
19827;BME280;10074;52.018;4.726;2022-08-16T22:20:01;46287.44;;;-144.79;100.00
19827;BME280;10074;52.018;4.726;2022-08-16T22:25:02;46283.41;;;-144.79;100.00
19827;BME280;10074;52.018;4.726;2022-08-16T22:30:03;46283.41;;;-144.79;100.00
19827;BME280;10074;52.018;4.726;2022-08-16T22:35:04;46287.44;;;-144.79;100.00
19827;BME280;10074;52.018;4.726;2022-08-16T22:40:05;46289.44;;;-144.79;100.00
19827;BME280;10074;52.018;4.726;2022-08-16T22:45:06;46281.41;;;-144.79;100.00
19827;BME280;10074;52.018;4.726;2022-08-16T22:50:07;46283.41;;;-144.79;100.00
19827;BME280;10074;52.018;4.726;2022-08-16T22:55:08;46283.41;;;-144.79;100.00
19827;BME280;10074;52.018;4.726;2022-08-16T23:00:11;46279.41;;;-144.79;100.00
19827;BME280;10074;52.018;4.726;2022-08-16T23:05:16;46287.44;;;-144.79;100.00
19827;BME280;10074;52.018;4.726;2022-08-16T23:10:17;46291.44;;;-144.79;100.00
19827;BME280;10074;52.018;4.726;2022-08-16T23:15:18;46285.41;;;-144.79;100.00
19827;BME280;10074;52.018;4.726;2022-08-16T23:20:22;46285.41;;;-144.79;100.00
19827;BME280;10074;52.018;4.726;2022-08-16T23:25:26;46283.41;;;-144.79;100.00
19827;BME280;10074;52.018;4.726;2022-08-16T23:30:29;46291.44;;;-144.79;100.00
19827;BME280;10074;52.018;4.726;2022-08-16T23:35:32;46293.44;;;-144.79;100.00
19827;BME280;10074;52.018;4.726;2022-08-16T23:40:34;46297.44;;;-144.79;100.00
19827;BME280;10074;52.018;4.726;2022-08-16T23:45:43;46283.41;;;-144.79;100.00
19827;BME280;10074;52.018;4.726;2022-08-16T23:50:46;46295.44;;;-144.79;100.00
19827;BME280;10074;52.018;4.726;2022-08-16T23:55:58;46291.44;;;-144.79;100.00
